sensor_id;sensor_type;location;lat;lon;timestamp;P1;durP1;ratioP1;P2;durP2;ratioP2
7957;SDS011;4024;52.172;5.378;2024-03-08T00:01:35;35.17;;;23.10;;
7957;SDS011;4024;52.172;5.378;2024-03-08T00:04:00;39.63;;;24.13;;
7957;SDS011;4024;52.172;5.378;2024-03-08T00:06:26;39.50;;;24.43;;
7957;SDS011;4024;52.172;5.378;2024-03-08T00:08:52;35.13;;;22.43;;
7957;SDS011;4024;52.172;5.378;2024-03-08T00:11:17;33.73;;;22.90;;
7957;SDS011;4024;52.172;5.378;2024-03-08T00:13:43;39.40;;;23.83;;
7957;SDS011;4024;52.172;5.378;2024-03-08T00:16:10;36.03;;;22.67;;
7957;SDS011;4024;52.172;5.378;2024-03-08T00:18:35;35.57;;;22.53;;
7957;SDS011;4024;52.172;5.378;2024-03-08T00:21:01;34.47;;;23.40;;
7957;SDS011;4024;52.172;5.378;2024-03-08T00:23:27;34.17;;;23.07;;
7957;SDS011;4024;52.172;5.378;2024-03-08T00:25:53;38.00;;;22.60;;
7957;SDS011;4024;52.172;5.378;2024-03-08T00:28:20;33.63;;;22.47;;
7957;SDS011;4024;52.172;5.378;2024-03-08T00:30:46;33.37;;;23.00;;
7957;SDS011;4024;52.172;5.378;2024-03-08T00:33:12;35.10;;;23.80;;
7957;SDS011;4024;52.172;5.378;2024-03-08T00:35:37;35.93;;;23.37;;
7957;SDS011;4024;52.172;5.378;2024-03-08T00:38:03;33.70;;;22.33;;
7957;SDS011;4024;52.172;5.378;2024-03-08T00:40:29;35.30;;;23.60;;
7957;SDS011;4024;52.172;5.378;2024-03-08T00:42:54;32.37;;;22.33;;
7957;SDS011;4024;52.172;5.378;2024-03-08T00:45:20;39.77;;;23.83;;
7957;SDS011;4024;52.172;5.378;2024-03-08T00:47:47;35.60;;;22.77;;
7957;SDS011;4024;52.172;5.378;2024-03-08T00:50:13;33.07;;;21.73;;
7957;SDS011;4024;52.172;5.378;2024-03-08T00:52:38;34.00;;;22.90;;
7957;SDS011;4024;52.172;5.378;2024-03-08T00:55:04;39.07;;;22.67;;
7957;SDS011;4024;52.172;5.378;2024-03-08T00:57:30;33.50;;;22.23;;
7957;SDS011;4024;52.172;5.378;2024-03-08T00:59:55;37.43;;;22.67;;
7957;SDS011;4024;52.172;5.378;2024-03-08T01:02:21;33.63;;;22.77;;
7957;SDS011;4024;52.172;5.378;2024-03-08T01:04:48;33.87;;;22.47;;
7957;SDS011;4024;52.172;5.378;2024-03-08T01:07:13;35.47;;;22.50;;
7957;SDS011;4024;52.172;5.378;2024-03-08T01:09:39;32.40;;;22.10;;
7957;SDS011;4024;52.172;5.378;2024-03-08T01:12:05;34.93;;;22.93;;
7957;SDS011;4024;52.172;5.378;2024-03-08T01:14:32;35.37;;;21.90;;
7957;SDS011;4024;52.172;5.378;2024-03-08T01:16:58;38.63;;;24.87;;
7957;SDS011;4024;52.172;5.378;2024-03-08T01:19:24;34.30;;;22.53;;
7957;SDS011;4024;52.172;5.378;2024-03-08T01:21:50;36.33;;;22.93;;
7957;SDS011;4024;52.172;5.378;2024-03-08T01:24:16;31.27;;;21.77;;
7957;SDS011;4024;52.172;5.378;2024-03-08T01:26:42;33.70;;;22.70;;
7957;SDS011;4024;52.172;5.378;2024-03-08T01:29:07;35.27;;;22.83;;
7957;SDS011;4024;52.172;5.378;2024-03-08T01:31:33;38.63;;;22.90;;
7957;SDS011;4024;52.172;5.378;2024-03-08T01:33:59;36.30;;;23.97;;
7957;SDS011;4024;52.172;5.378;2024-03-08T01:36:24;35.33;;;23.43;;
7957;SDS011;4024;52.172;5.378;2024-03-08T01:38:51;33.53;;;21.93;;
7957;SDS011;4024;52.172;5.378;2024-03-08T01:41:17;34.63;;;23.00;;
7957;SDS011;4024;52.172;5.378;2024-03-08T01:43:43;35.23;;;25.07;;
7957;SDS011;4024;52.172;5.378;2024-03-08T01:46:09;36.20;;;23.53;;
7957;SDS011;4024;52.172;5.378;2024-03-08T01:48:38;36.27;;;24.30;;
7957;SDS011;4024;52.172;5.378;2024-03-08T01:51:04;34.97;;;22.70;;
7957;SDS011;4024;52.172;5.378;2024-03-08T01:53:30;36.27;;;23.60;;
7957;SDS011;4024;52.172;5.378;2024-03-08T01:55:58;38.93;;;24.53;;
7957;SDS011;4024;52.172;5.378;2024-03-08T01:58:28;34.77;;;23.83;;
7957;SDS011;4024;52.172;5.378;2024-03-08T02:00:56;31.70;;;23.17;;
7957;SDS011;4024;52.172;5.378;2024-03-08T02:03:24;35.03;;;23.17;;
7957;SDS011;4024;52.172;5.378;2024-03-08T02:05:50;36.80;;;25.13;;
7957;SDS011;4024;52.172;5.378;2024-03-08T02:08:19;34.17;;;23.43;;
7957;SDS011;4024;52.172;5.378;2024-03-08T02:10:47;37.03;;;24.90;;
7957;SDS011;4024;52.172;5.378;2024-03-08T02:13:14;33.87;;;23.27;;
7957;SDS011;4024;52.172;5.378;2024-03-08T02:15:56;33.73;;;23.90;;
7957;SDS011;4024;52.172;5.378;2024-03-08T02:18:26;31.10;;;21.57;;
7957;SDS011;4024;52.172;5.378;2024-03-08T02:20:55;34.83;;;22.73;;
7957;SDS011;4024;52.172;5.378;2024-03-08T02:23:22;36.67;;;23.37;;
7957;SDS011;4024;52.172;5.378;2024-03-08T02:25:48;33.57;;;22.83;;
7957;SDS011;4024;52.172;5.378;2024-03-08T02:28:15;34.67;;;23.77;;
7957;SDS011;4024;52.172;5.378;2024-03-08T02:30:43;34.10;;;23.30;;
7957;SDS011;4024;52.172;5.378;2024-03-08T02:33:12;30.80;;;21.57;;
7957;SDS011;4024;52.172;5.378;2024-03-08T02:35:41;36.23;;;24.30;;
7957;SDS011;4024;52.172;5.378;2024-03-08T02:38:10;38.20;;;23.43;;
7957;SDS011;4024;52.172;5.378;2024-03-08T02:40:36;36.63;;;24.60;;
7957;SDS011;4024;52.172;5.378;2024-03-08T02:43:02;32.47;;;23.53;;
7957;SDS011;4024;52.172;5.378;2024-03-08T02:45:30;35.70;;;24.70;;
7957;SDS011;4024;52.172;5.378;2024-03-08T02:47:55;33.17;;;23.77;;
7957;SDS011;4024;52.172;5.378;2024-03-08T02:50:21;31.07;;;22.97;;
7957;SDS011;4024;52.172;5.378;2024-03-08T02:52:47;33.53;;;23.30;;
7957;SDS011;4024;52.172;5.378;2024-03-08T02:55:13;33.10;;;23.80;;
7957;SDS011;4024;52.172;5.378;2024-03-08T02:57:42;34.60;;;24.00;;
7957;SDS011;4024;52.172;5.378;2024-03-08T03:00:09;36.73;;;23.57;;
7957;SDS011;4024;52.172;5.378;2024-03-08T03:02:35;33.57;;;24.30;;
7957;SDS011;4024;52.172;5.378;2024-03-08T03:05:02;34.97;;;23.47;;
7957;SDS011;4024;52.172;5.378;2024-03-08T03:07:31;38.37;;;25.23;;
7957;SDS011;4024;52.172;5.378;2024-03-08T03:09:58;35.40;;;23.43;;
7957;SDS011;4024;52.172;5.378;2024-03-08T03:12:25;36.57;;;24.93;;
7957;SDS011;4024;52.172;5.378;2024-03-08T03:14:54;36.17;;;24.87;;
7957;SDS011;4024;52.172;5.378;2024-03-08T03:17:24;35.30;;;25.03;;
7957;SDS011;4024;52.172;5.378;2024-03-08T03:19:50;35.20;;;23.93;;
7957;SDS011;4024;52.172;5.378;2024-03-08T03:22:20;36.13;;;24.97;;
7957;SDS011;4024;52.172;5.378;2024-03-08T03:24:46;33.43;;;24.63;;
7957;SDS011;4024;52.172;5.378;2024-03-08T03:27:12;35.47;;;24.03;;
7957;SDS011;4024;52.172;5.378;2024-03-08T03:29:40;34.93;;;24.77;;
7957;SDS011;4024;52.172;5.378;2024-03-08T03:32:14;37.87;;;25.30;;
7957;SDS011;4024;52.172;5.378;2024-03-08T03:34:41;35.17;;;24.47;;
7957;SDS011;4024;52.172;5.378;2024-03-08T03:37:09;36.10;;;23.97;;
7957;SDS011;4024;52.172;5.378;2024-03-08T03:39:37;35.03;;;23.23;;
7957;SDS011;4024;52.172;5.378;2024-03-08T03:42:18;35.80;;;24.93;;
7957;SDS011;4024;52.172;5.378;2024-03-08T03:44:47;34.87;;;24.17;;
7957;SDS011;4024;52.172;5.378;2024-03-08T03:47:13;36.27;;;24.90;;
7957;SDS011;4024;52.172;5.378;2024-03-08T03:49:41;35.37;;;25.97;;
7957;SDS011;4024;52.172;5.378;2024-03-08T03:52:07;36.27;;;25.37;;
7957;SDS011;4024;52.172;5.378;2024-03-08T03:54:34;38.07;;;25.40;;
7957;SDS011;4024;52.172;5.378;2024-03-08T03:57:00;35.63;;;26.53;;
7957;SDS011;4024;52.172;5.378;2024-03-08T03:59:26;35.23;;;24.70;;
7957;SDS011;4024;52.172;5.378;2024-03-08T04:01:52;35.17;;;25.27;;
7957;SDS011;4024;52.172;5.378;2024-03-08T04:04:18;38.30;;;25.70;;
7957;SDS011;4024;52.172;5.378;2024-03-08T04:06:43;37.87;;;26.67;;
7957;SDS011;4024;52.172;5.378;2024-03-08T04:09:10;40.43;;;25.83;;
7957;SDS011;4024;52.172;5.378;2024-03-08T04:11:36;35.80;;;25.70;;
7957;SDS011;4024;52.172;5.378;2024-03-08T04:14:01;34.70;;;25.17;;
7957;SDS011;4024;52.172;5.378;2024-03-08T04:16:27;36.10;;;24.57;;
7957;SDS011;4024;52.172;5.378;2024-03-08T04:18:53;38.77;;;26.40;;
7957;SDS011;4024;52.172;5.378;2024-03-08T04:21:19;36.27;;;24.77;;
7957;SDS011;4024;52.172;5.378;2024-03-08T04:23:44;37.20;;;26.53;;
7957;SDS011;4024;52.172;5.378;2024-03-08T04:26:10;37.20;;;25.33;;
7957;SDS011;4024;52.172;5.378;2024-03-08T04:28:36;35.30;;;24.80;;
7957;SDS011;4024;52.172;5.378;2024-03-08T04:31:03;33.50;;;24.70;;
7957;SDS011;4024;52.172;5.378;2024-03-08T04:33:29;35.33;;;25.90;;
7957;SDS011;4024;52.172;5.378;2024-03-08T04:35:54;35.57;;;24.93;;
7957;SDS011;4024;52.172;5.378;2024-03-08T04:38:20;39.13;;;26.30;;
7957;SDS011;4024;52.172;5.378;2024-03-08T04:40:46;37.43;;;25.93;;
7957;SDS011;4024;52.172;5.378;2024-03-08T04:43:12;37.77;;;26.63;;
7957;SDS011;4024;52.172;5.378;2024-03-08T04:45:39;35.73;;;24.47;;
7957;SDS011;4024;52.172;5.378;2024-03-08T04:48:06;37.73;;;25.63;;
7957;SDS011;4024;52.172;5.378;2024-03-08T04:50:33;34.50;;;25.27;;
7957;SDS011;4024;52.172;5.378;2024-03-08T04:52:59;35.93;;;25.60;;
7957;SDS011;4024;52.172;5.378;2024-03-08T04:55:24;33.40;;;25.90;;
7957;SDS011;4024;52.172;5.378;2024-03-08T04:57:50;36.60;;;25.57;;
7957;SDS011;4024;52.172;5.378;2024-03-08T05:00:16;36.20;;;25.93;;
7957;SDS011;4024;52.172;5.378;2024-03-08T05:02:42;33.77;;;24.83;;
7957;SDS011;4024;52.172;5.378;2024-03-08T05:05:07;35.10;;;25.93;;
7957;SDS011;4024;52.172;5.378;2024-03-08T05:07:37;37.53;;;26.67;;
7957;SDS011;4024;52.172;5.378;2024-03-08T05:10:06;34.97;;;25.07;;
7957;SDS011;4024;52.172;5.378;2024-03-08T05:12:35;32.43;;;24.33;;
7957;SDS011;4024;52.172;5.378;2024-03-08T05:15:00;36.40;;;25.57;;
7957;SDS011;4024;52.172;5.378;2024-03-08T05:17:26;37.37;;;26.43;;
7957;SDS011;4024;52.172;5.378;2024-03-08T05:19:51;36.70;;;26.37;;
7957;SDS011;4024;52.172;5.378;2024-03-08T05:22:17;35.97;;;25.33;;
7957;SDS011;4024;52.172;5.378;2024-03-08T05:24:43;35.53;;;25.80;;
7957;SDS011;4024;52.172;5.378;2024-03-08T05:27:09;33.93;;;25.03;;
7957;SDS011;4024;52.172;5.378;2024-03-08T05:29:36;33.63;;;24.70;;
7957;SDS011;4024;52.172;5.378;2024-03-08T05:32:02;35.77;;;27.00;;
7957;SDS011;4024;52.172;5.378;2024-03-08T05:34:29;34.00;;;25.07;;
7957;SDS011;4024;52.172;5.378;2024-03-08T05:36:54;36.20;;;26.37;;
7957;SDS011;4024;52.172;5.378;2024-03-08T05:39:20;39.57;;;27.43;;
7957;SDS011;4024;52.172;5.378;2024-03-08T05:41:46;37.50;;;26.27;;
7957;SDS011;4024;52.172;5.378;2024-03-08T05:44:12;40.07;;;28.30;;
7957;SDS011;4024;52.172;5.378;2024-03-08T05:46:38;35.27;;;25.73;;
7957;SDS011;4024;52.172;5.378;2024-03-08T05:49:04;36.70;;;25.67;;
7957;SDS011;4024;52.172;5.378;2024-03-08T05:51:34;36.33;;;25.50;;
7957;SDS011;4024;52.172;5.378;2024-03-08T05:54:02;36.43;;;26.90;;
7957;SDS011;4024;52.172;5.378;2024-03-08T05:56:30;36.97;;;25.60;;
7957;SDS011;4024;52.172;5.378;2024-03-08T05:58:56;35.53;;;25.60;;
7957;SDS011;4024;52.172;5.378;2024-03-08T06:01:23;31.93;;;25.70;;
7957;SDS011;4024;52.172;5.378;2024-03-08T06:03:54;42.20;;;26.27;;
7957;SDS011;4024;52.172;5.378;2024-03-08T06:06:24;37.07;;;26.03;;
7957;SDS011;4024;52.172;5.378;2024-03-08T06:08:50;40.33;;;28.27;;
7957;SDS011;4024;52.172;5.378;2024-03-08T06:11:16;42.20;;;27.87;;
7957;SDS011;4024;52.172;5.378;2024-03-08T06:13:44;38.43;;;27.33;;
7957;SDS011;4024;52.172;5.378;2024-03-08T06:16:10;37.57;;;26.27;;
7957;SDS011;4024;52.172;5.378;2024-03-08T06:18:36;40.23;;;28.27;;
7957;SDS011;4024;52.172;5.378;2024-03-08T06:21:05;41.00;;;27.37;;
7957;SDS011;4024;52.172;5.378;2024-03-08T06:23:34;37.43;;;25.93;;
7957;SDS011;4024;52.172;5.378;2024-03-08T06:26:03;35.10;;;26.90;;
7957;SDS011;4024;52.172;5.378;2024-03-08T06:28:30;41.20;;;27.87;;
7957;SDS011;4024;52.172;5.378;2024-03-08T06:30:57;36.17;;;26.23;;
7957;SDS011;4024;52.172;5.378;2024-03-08T06:33:26;36.97;;;26.23;;
7957;SDS011;4024;52.172;5.378;2024-03-08T06:35:52;37.43;;;26.77;;
7957;SDS011;4024;52.172;5.378;2024-03-08T06:38:22;36.33;;;26.87;;
7957;SDS011;4024;52.172;5.378;2024-03-08T06:40:48;39.80;;;26.87;;
7957;SDS011;4024;52.172;5.378;2024-03-08T06:43:17;36.37;;;26.83;;
7957;SDS011;4024;52.172;5.378;2024-03-08T06:45:44;35.13;;;26.27;;
7957;SDS011;4024;52.172;5.378;2024-03-08T06:48:19;37.37;;;26.80;;
7957;SDS011;4024;52.172;5.378;2024-03-08T06:50:45;36.27;;;26.77;;
7957;SDS011;4024;52.172;5.378;2024-03-08T06:53:12;33.73;;;26.50;;
7957;SDS011;4024;52.172;5.378;2024-03-08T06:55:38;39.67;;;27.60;;
7957;SDS011;4024;52.172;5.378;2024-03-08T06:58:04;39.43;;;26.90;;
7957;SDS011;4024;52.172;5.378;2024-03-08T07:00:31;39.07;;;27.10;;
7957;SDS011;4024;52.172;5.378;2024-03-08T07:02:58;41.63;;;29.40;;
7957;SDS011;4024;52.172;5.378;2024-03-08T07:05:26;36.67;;;27.17;;
7957;SDS011;4024;52.172;5.378;2024-03-08T07:07:52;37.43;;;27.27;;
7957;SDS011;4024;52.172;5.378;2024-03-08T07:10:19;38.40;;;27.23;;
7957;SDS011;4024;52.172;5.378;2024-03-08T07:12:50;38.23;;;26.53;;
7957;SDS011;4024;52.172;5.378;2024-03-08T07:15:18;40.00;;;28.00;;
7957;SDS011;4024;52.172;5.378;2024-03-08T07:17:48;36.40;;;26.97;;
7957;SDS011;4024;52.172;5.378;2024-03-08T07:20:14;37.03;;;26.90;;
7957;SDS011;4024;52.172;5.378;2024-03-08T07:22:43;40.03;;;27.67;;
7957;SDS011;4024;52.172;5.378;2024-03-08T07:25:13;36.93;;;27.93;;
7957;SDS011;4024;52.172;5.378;2024-03-08T07:30:16;36.93;;;27.40;;
7957;SDS011;4024;52.172;5.378;2024-03-08T07:33:01;39.50;;;27.57;;
7957;SDS011;4024;52.172;5.378;2024-03-08T07:35:29;39.23;;;28.03;;
7957;SDS011;4024;52.172;5.378;2024-03-08T07:37:56;36.27;;;26.37;;
7957;SDS011;4024;52.172;5.378;2024-03-08T07:40:22;37.77;;;27.80;;
7957;SDS011;4024;52.172;5.378;2024-03-08T07:42:48;34.90;;;26.77;;
7957;SDS011;4024;52.172;5.378;2024-03-08T07:45:16;40.90;;;28.43;;
7957;SDS011;4024;52.172;5.378;2024-03-08T07:47:42;41.07;;;29.17;;
7957;SDS011;4024;52.172;5.378;2024-03-08T07:50:08;36.70;;;27.40;;
7957;SDS011;4024;52.172;5.378;2024-03-08T07:52:34;39.10;;;27.53;;
7957;SDS011;4024;52.172;5.378;2024-03-08T07:55:01;37.83;;;27.77;;
7957;SDS011;4024;52.172;5.378;2024-03-08T07:57:28;38.60;;;27.27;;
7957;SDS011;4024;52.172;5.378;2024-03-08T07:59:54;38.27;;;27.90;;
7957;SDS011;4024;52.172;5.378;2024-03-08T08:02:20;39.37;;;28.03;;
7957;SDS011;4024;52.172;5.378;2024-03-08T08:04:46;37.27;;;27.87;;
7957;SDS011;4024;52.172;5.378;2024-03-08T08:07:12;37.87;;;27.17;;
7957;SDS011;4024;52.172;5.378;2024-03-08T08:09:37;38.77;;;27.80;;
7957;SDS011;4024;52.172;5.378;2024-03-08T08:12:03;38.60;;;28.40;;
7957;SDS011;4024;52.172;5.378;2024-03-08T08:14:29;40.20;;;27.93;;
7957;SDS011;4024;52.172;5.378;2024-03-08T08:16:55;38.47;;;28.17;;
7957;SDS011;4024;52.172;5.378;2024-03-08T08:19:22;38.07;;;27.97;;
7957;SDS011;4024;52.172;5.378;2024-03-08T08:21:48;38.67;;;26.97;;
7957;SDS011;4024;52.172;5.378;2024-03-08T08:24:14;36.23;;;26.83;;
7957;SDS011;4024;52.172;5.378;2024-03-08T08:26:40;37.27;;;26.70;;
7957;SDS011;4024;52.172;5.378;2024-03-08T08:29:05;37.90;;;28.30;;
7957;SDS011;4024;52.172;5.378;2024-03-08T08:31:32;39.47;;;25.93;;
7957;SDS011;4024;52.172;5.378;2024-03-08T08:33:58;35.83;;;27.07;;
7957;SDS011;4024;52.172;5.378;2024-03-08T08:36:24;36.10;;;27.00;;
7957;SDS011;4024;52.172;5.378;2024-03-08T08:38:50;35.50;;;27.50;;
7957;SDS011;4024;52.172;5.378;2024-03-08T08:41:19;35.43;;;26.80;;
7957;SDS011;4024;52.172;5.378;2024-03-08T08:43:46;38.17;;;26.87;;
7957;SDS011;4024;52.172;5.378;2024-03-08T08:46:16;32.87;;;25.57;;
7957;SDS011;4024;52.172;5.378;2024-03-08T08:48:42;35.77;;;26.87;;
7957;SDS011;4024;52.172;5.378;2024-03-08T08:51:10;34.20;;;26.57;;
7957;SDS011;4024;52.172;5.378;2024-03-08T08:53:40;37.27;;;27.20;;
7957;SDS011;4024;52.172;5.378;2024-03-08T08:56:14;34.23;;;25.37;;
7957;SDS011;4024;52.172;5.378;2024-03-08T08:58:40;35.23;;;26.23;;
7957;SDS011;4024;52.172;5.378;2024-03-08T09:01:08;35.63;;;27.00;;
7957;SDS011;4024;52.172;5.378;2024-03-08T09:03:35;36.27;;;27.13;;
7957;SDS011;4024;52.172;5.378;2024-03-08T09:06:02;35.80;;;26.67;;
7957;SDS011;4024;52.172;5.378;2024-03-08T09:08:38;35.50;;;25.73;;
7957;SDS011;4024;52.172;5.378;2024-03-08T09:11:04;35.73;;;26.37;;
7957;SDS011;4024;52.172;5.378;2024-03-08T09:13:30;35.97;;;27.50;;
7957;SDS011;4024;52.172;5.378;2024-03-08T09:15:56;33.00;;;25.77;;
7957;SDS011;4024;52.172;5.378;2024-03-08T09:18:21;32.27;;;25.30;;
7957;SDS011;4024;52.172;5.378;2024-03-08T09:20:49;34.03;;;27.50;;
7957;SDS011;4024;52.172;5.378;2024-03-08T09:23:14;34.23;;;26.23;;
7957;SDS011;4024;52.172;5.378;2024-03-08T09:25:42;35.80;;;25.83;;
7957;SDS011;4024;52.172;5.378;2024-03-08T09:28:08;36.23;;;25.53;;
7957;SDS011;4024;52.172;5.378;2024-03-08T09:30:36;33.90;;;25.37;;
7957;SDS011;4024;52.172;5.378;2024-03-08T09:33:03;35.90;;;26.77;;
7957;SDS011;4024;52.172;5.378;2024-03-08T09:35:29;38.47;;;26.93;;
7957;SDS011;4024;52.172;5.378;2024-03-08T09:37:55;34.77;;;25.60;;
7957;SDS011;4024;52.172;5.378;2024-03-08T09:40:21;36.73;;;25.90;;
7957;SDS011;4024;52.172;5.378;2024-03-08T09:42:49;34.73;;;24.87;;
7957;SDS011;4024;52.172;5.378;2024-03-08T09:45:14;32.30;;;23.90;;
7957;SDS011;4024;52.172;5.378;2024-03-08T09:47:42;35.03;;;25.00;;
7957;SDS011;4024;52.172;5.378;2024-03-08T09:50:09;32.57;;;24.57;;
7957;SDS011;4024;52.172;5.378;2024-03-08T09:52:38;34.73;;;25.80;;
7957;SDS011;4024;52.172;5.378;2024-03-08T09:55:05;32.93;;;26.00;;
7957;SDS011;4024;52.172;5.378;2024-03-08T09:57:32;32.17;;;23.83;;
7957;SDS011;4024;52.172;5.378;2024-03-08T10:00:00;31.80;;;24.57;;
7957;SDS011;4024;52.172;5.378;2024-03-08T10:02:26;30.50;;;23.13;;
7957;SDS011;4024;52.172;5.378;2024-03-08T10:04:52;30.83;;;23.53;;
7957;SDS011;4024;52.172;5.378;2024-03-08T10:07:18;33.93;;;24.57;;
7957;SDS011;4024;52.172;5.378;2024-03-08T10:09:44;30.57;;;24.33;;
7957;SDS011;4024;52.172;5.378;2024-03-08T10:12:15;31.20;;;23.43;;
7957;SDS011;4024;52.172;5.378;2024-03-08T10:14:42;33.73;;;25.17;;
7957;SDS011;4024;52.172;5.378;2024-03-08T10:17:08;32.53;;;23.87;;
7957;SDS011;4024;52.172;5.378;2024-03-08T10:19:34;31.80;;;24.73;;
7957;SDS011;4024;52.172;5.378;2024-03-08T10:22:00;32.73;;;24.30;;
7957;SDS011;4024;52.172;5.378;2024-03-08T10:24:25;34.53;;;23.70;;
7957;SDS011;4024;52.172;5.378;2024-03-08T10:27:03;30.77;;;23.37;;
7957;SDS011;4024;52.172;5.378;2024-03-08T10:29:30;30.73;;;23.67;;
7957;SDS011;4024;52.172;5.378;2024-03-08T10:31:56;33.53;;;24.70;;
7957;SDS011;4024;52.172;5.378;2024-03-08T10:34:22;31.63;;;22.50;;
7957;SDS011;4024;52.172;5.378;2024-03-08T10:36:51;32.83;;;23.80;;
7957;SDS011;4024;52.172;5.378;2024-03-08T10:41:48;33.00;;;23.67;;
7957;SDS011;4024;52.172;5.378;2024-03-08T10:49:50;29.00;;;21.97;;
7957;SDS011;4024;52.172;5.378;2024-03-08T10:52:20;26.83;;;21.63;;
7957;SDS011;4024;52.172;5.378;2024-03-08T10:54:47;29.37;;;22.80;;
7957;SDS011;4024;52.172;5.378;2024-03-08T10:57:14;28.37;;;21.77;;
7957;SDS011;4024;52.172;5.378;2024-03-08T10:59:44;28.27;;;21.80;;
7957;SDS011;4024;52.172;5.378;2024-03-08T11:02:12;29.40;;;22.03;;
7957;SDS011;4024;52.172;5.378;2024-03-08T11:04:37;25.77;;;21.03;;
7957;SDS011;4024;52.172;5.378;2024-03-08T11:07:03;27.40;;;20.87;;
7957;SDS011;4024;52.172;5.378;2024-03-08T11:09:31;28.67;;;21.40;;
7957;SDS011;4024;52.172;5.378;2024-03-08T11:14:46;28.83;;;21.37;;
7957;SDS011;4024;52.172;5.378;2024-03-08T11:17:16;28.83;;;21.70;;
7957;SDS011;4024;52.172;5.378;2024-03-08T11:20:12;27.57;;;21.10;;
7957;SDS011;4024;52.172;5.378;2024-03-08T11:22:47;27.40;;;20.70;;
7957;SDS011;4024;52.172;5.378;2024-03-08T11:25:30;28.23;;;22.00;;
7957;SDS011;4024;52.172;5.378;2024-03-08T11:33:27;25.53;;;20.63;;
7957;SDS011;4024;52.172;5.378;2024-03-08T11:36:03;26.00;;;20.60;;
7957;SDS011;4024;52.172;5.378;2024-03-08T11:38:44;26.47;;;20.00;;
7957;SDS011;4024;52.172;5.378;2024-03-08T11:41:13;24.10;;;19.10;;
7957;SDS011;4024;52.172;5.378;2024-03-08T11:43:49;25.23;;;18.67;;
7957;SDS011;4024;52.172;5.378;2024-03-08T11:46:30;24.00;;;19.17;;
7957;SDS011;4024;52.172;5.378;2024-03-08T11:48:56;24.20;;;19.03;;
7957;SDS011;4024;52.172;5.378;2024-03-08T11:51:21;21.83;;;17.57;;
7957;SDS011;4024;52.172;5.378;2024-03-08T11:53:49;23.77;;;18.33;;
7957;SDS011;4024;52.172;5.378;2024-03-08T11:56:15;22.03;;;17.90;;
7957;SDS011;4024;52.172;5.378;2024-03-08T11:58:41;21.47;;;17.77;;
7957;SDS011;4024;52.172;5.378;2024-03-08T12:01:17;22.03;;;17.30;;
7957;SDS011;4024;52.172;5.378;2024-03-08T12:03:43;24.03;;;19.07;;
7957;SDS011;4024;52.172;5.378;2024-03-08T12:06:09;23.03;;;17.90;;
7957;SDS011;4024;52.172;5.378;2024-03-08T12:08:35;27.40;;;18.47;;
7957;SDS011;4024;52.172;5.378;2024-03-08T12:11:03;22.90;;;18.13;;
7957;SDS011;4024;52.172;5.378;2024-03-08T12:13:33;26.30;;;17.83;;
7957;SDS011;4024;52.172;5.378;2024-03-08T12:16:02;20.70;;;17.33;;
7957;SDS011;4024;52.172;5.378;2024-03-08T12:18:29;22.60;;;18.17;;
7957;SDS011;4024;52.172;5.378;2024-03-08T12:21:09;21.50;;;17.07;;
7957;SDS011;4024;52.172;5.378;2024-03-08T12:23:36;22.00;;;17.37;;
7957;SDS011;4024;52.172;5.378;2024-03-08T12:26:14;22.00;;;16.70;;
7957;SDS011;4024;52.172;5.378;2024-03-08T12:28:41;18.47;;;16.03;;
7957;SDS011;4024;52.172;5.378;2024-03-08T12:31:12;20.53;;;17.27;;
7957;SDS011;4024;52.172;5.378;2024-03-08T12:33:51;20.03;;;15.67;;
7957;SDS011;4024;52.172;5.378;2024-03-08T12:36:24;20.07;;;15.80;;
7957;SDS011;4024;52.172;5.378;2024-03-08T12:38:50;19.70;;;16.77;;
7957;SDS011;4024;52.172;5.378;2024-03-08T12:41:19;21.63;;;17.03;;
7957;SDS011;4024;52.172;5.378;2024-03-08T12:43:46;21.53;;;16.13;;
7957;SDS011;4024;52.172;5.378;2024-03-08T12:46:14;18.87;;;16.43;;
7957;SDS011;4024;52.172;5.378;2024-03-08T12:48:40;20.53;;;15.73;;
7957;SDS011;4024;52.172;5.378;2024-03-08T12:51:06;21.03;;;16.07;;
7957;SDS011;4024;52.172;5.378;2024-03-08T12:53:32;19.33;;;15.20;;
7957;SDS011;4024;52.172;5.378;2024-03-08T12:55:58;20.40;;;16.03;;
7957;SDS011;4024;52.172;5.378;2024-03-08T12:58:24;20.93;;;16.37;;
7957;SDS011;4024;52.172;5.378;2024-03-08T13:00:51;19.47;;;16.23;;
7957;SDS011;4024;52.172;5.378;2024-03-08T13:03:16;21.20;;;16.57;;
7957;SDS011;4024;52.172;5.378;2024-03-08T13:05:42;20.13;;;16.13;;
7957;SDS011;4024;52.172;5.378;2024-03-08T13:08:08;18.60;;;16.20;;
7957;SDS011;4024;52.172;5.378;2024-03-08T13:10:43;20.83;;;16.60;;
7957;SDS011;4024;52.172;5.378;2024-03-08T13:13:11;22.90;;;17.03;;
7957;SDS011;4024;52.172;5.378;2024-03-08T13:15:40;19.50;;;16.30;;
7957;SDS011;4024;52.172;5.378;2024-03-08T13:18:06;21.63;;;17.93;;
7957;SDS011;4024;52.172;5.378;2024-03-08T13:20:34;20.70;;;16.93;;
7957;SDS011;4024;52.172;5.378;2024-03-08T13:23:02;21.93;;;17.23;;
7957;SDS011;4024;52.172;5.378;2024-03-08T13:25:30;22.10;;;16.83;;
7957;SDS011;4024;52.172;5.378;2024-03-08T13:27:56;21.63;;;17.93;;
7957;SDS011;4024;52.172;5.378;2024-03-08T13:30:24;21.90;;;18.20;;
7957;SDS011;4024;52.172;5.378;2024-03-08T13:32:52;21.17;;;17.47;;
7957;SDS011;4024;52.172;5.378;2024-03-08T13:35:18;21.23;;;17.13;;
7957;SDS011;4024;52.172;5.378;2024-03-08T13:37:49;20.83;;;16.90;;
7957;SDS011;4024;52.172;5.378;2024-03-08T13:40:16;21.40;;;16.87;;
7957;SDS011;4024;52.172;5.378;2024-03-08T13:42:45;21.83;;;17.23;;
7957;SDS011;4024;52.172;5.378;2024-03-08T13:45:11;20.50;;;16.73;;
7957;SDS011;4024;52.172;5.378;2024-03-08T13:47:40;22.20;;;17.97;;
7957;SDS011;4024;52.172;5.378;2024-03-08T13:50:07;21.67;;;17.83;;
7957;SDS011;4024;52.172;5.378;2024-03-08T13:52:37;21.53;;;17.40;;
7957;SDS011;4024;52.172;5.378;2024-03-08T13:55:03;20.33;;;16.70;;
7957;SDS011;4024;52.172;5.378;2024-03-08T13:57:30;22.00;;;17.60;;
7957;SDS011;4024;52.172;5.378;2024-03-08T13:59:57;22.17;;;17.83;;
7957;SDS011;4024;52.172;5.378;2024-03-08T14:02:23;22.13;;;16.83;;
7957;SDS011;4024;52.172;5.378;2024-03-08T14:04:53;21.73;;;16.90;;
7957;SDS011;4024;52.172;5.378;2024-03-08T14:07:19;21.83;;;17.17;;
7957;SDS011;4024;52.172;5.378;2024-03-08T14:09:45;21.57;;;17.00;;
7957;SDS011;4024;52.172;5.378;2024-03-08T14:12:11;18.83;;;15.63;;
7957;SDS011;4024;52.172;5.378;2024-03-08T14:14:37;21.90;;;17.17;;
7957;SDS011;4024;52.172;5.378;2024-03-08T14:17:02;21.23;;;17.10;;
7957;SDS011;4024;52.172;5.378;2024-03-08T14:19:29;20.03;;;17.37;;
7957;SDS011;4024;52.172;5.378;2024-03-08T14:21:59;19.00;;;15.97;;
7957;SDS011;4024;52.172;5.378;2024-03-08T14:24:25;22.53;;;17.07;;
7957;SDS011;4024;52.172;5.378;2024-03-08T14:26:50;20.47;;;16.97;;
7957;SDS011;4024;52.172;5.378;2024-03-08T14:29:17;21.30;;;18.30;;
7957;SDS011;4024;52.172;5.378;2024-03-08T14:31:43;23.97;;;17.73;;
7957;SDS011;4024;52.172;5.378;2024-03-08T14:34:10;18.87;;;16.03;;
7957;SDS011;4024;52.172;5.378;2024-03-08T14:36:35;20.20;;;16.43;;
7957;SDS011;4024;52.172;5.378;2024-03-08T14:39:01;18.70;;;16.07;;
7957;SDS011;4024;52.172;5.378;2024-03-08T14:41:27;21.53;;;16.80;;
7957;SDS011;4024;52.172;5.378;2024-03-08T14:43:53;22.97;;;18.27;;
7957;SDS011;4024;52.172;5.378;2024-03-08T14:46:19;20.97;;;16.53;;
7957;SDS011;4024;52.172;5.378;2024-03-08T14:48:49;22.10;;;17.10;;
7957;SDS011;4024;52.172;5.378;2024-03-08T14:51:20;18.93;;;15.97;;
7957;SDS011;4024;52.172;5.378;2024-03-08T14:53:52;23.17;;;17.80;;
7957;SDS011;4024;52.172;5.378;2024-03-08T14:56:18;21.70;;;17.17;;
7957;SDS011;4024;52.172;5.378;2024-03-08T14:58:44;19.37;;;16.30;;
7957;SDS011;4024;52.172;5.378;2024-03-08T15:01:14;19.83;;;16.27;;
7957;SDS011;4024;52.172;5.378;2024-03-08T15:03:40;22.03;;;16.77;;
7957;SDS011;4024;52.172;5.378;2024-03-08T15:06:07;21.00;;;16.10;;
7957;SDS011;4024;52.172;5.378;2024-03-08T15:08:37;23.50;;;16.67;;